createdAt,value
2018-02-25T00:03:17.505Z,94.00
2018-02-25T00:08:21.254Z,94.10
2018-02-25T00:13:24.541Z,94.00
2018-02-25T00:18:28.586Z,94.20
2018-02-25T00:23:32.677Z,94.10
2018-02-25T00:28:36.375Z,93.80
2018-02-25T00:33:40.619Z,94.00
2018-02-25T00:38:44.378Z,93.80
2018-02-25T00:43:48.699Z,94.00
2018-02-25T00:48:52.776Z,94.00
2018-02-25T00:53:56.947Z,94.00
2018-02-25T00:59:01.158Z,94.20
2018-02-25T01:04:04.401Z,94.00
2018-02-25T01:09:08.573Z,93.90
2018-02-25T01:14:12.423Z,93.80
2018-02-25T01:19:16.806Z,94.30
2018-02-25T01:24:20.667Z,94.10
2018-02-25T01:29:27.422Z,93.80
2018-02-25T01:34:30.844Z,93.90
2018-02-25T01:39:38.305Z,93.90
2018-02-25T01:44:42.597Z,93.80
2018-02-25T01:49:50.550Z,93.50
2018-02-25T01:54:54.040Z,93.10
2018-02-25T01:59:57.268Z,93.30
2018-02-25T02:05:01.034Z,93.30
2018-02-25T02:10:04.898Z,93.10
2018-02-25T02:15:09.146Z,93.00
2018-02-25T02:20:16.213Z,92.40
2018-02-25T02:25:19.711Z,92.40
2018-02-25T02:30:27.548Z,92.20
2018-02-25T02:35:30.818Z,92.50
2018-02-25T02:40:37.931Z,92.20
2018-02-25T02:45:41.162Z,92.20
2018-02-25T02:50:48.212Z,92.30
2018-02-25T02:55:51.658Z,92.30
2018-02-25T03:00:55.167Z,92.10
2018-02-25T03:05:59.148Z,92.10
2018-02-25T03:11:03.703Z,91.80
2018-02-25T03:16:07.662Z,92.20
2018-02-25T03:21:10.994Z,92.20
2018-02-25T03:26:17.583Z,92.10
2018-02-25T03:31:21.100Z,91.90
2018-02-25T03:36:24.835Z,91.80
2018-02-25T03:41:28.803Z,91.60
2018-02-25T03:46:36.700Z,91.70
2018-02-25T03:51:40.952Z,92.00
2018-02-25T03:56:45.973Z,91.50
2018-02-25T04:01:49.778Z,91.50
2018-02-25T04:06:56.746Z,91.50
2018-02-25T04:12:00.073Z,91.70
2018-02-25T04:17:04.541Z,91.50
2018-02-25T04:22:07.882Z,91.50
2018-02-25T04:27:13.232Z,91.50
2018-02-25T04:32:17.710Z,91.50
2018-02-25T04:37:22.852Z,91.30
2018-02-25T04:42:26.364Z,91.30
2018-02-25T04:47:34.382Z,91.40
2018-02-25T04:52:38.643Z,91.60
2018-02-25T04:57:42.896Z,91.20
2018-02-25T05:02:47.377Z,91.40
2018-02-25T05:07:55.045Z,91.40
2018-02-25T05:12:59.322Z,91.20
2018-02-25T05:18:07.238Z,90.80
2018-02-25T05:23:10.514Z,91.10
2018-02-25T05:28:15.237Z,90.80
2018-02-25T05:33:18.497Z,90.70
2018-02-25T05:38:25.361Z,90.70
2018-02-25T05:43:28.692Z,90.60
2018-02-25T05:48:35.874Z,90.60
2018-02-25T05:53:39.238Z,90.80
2018-02-25T05:58:44.071Z,90.70
2018-02-25T06:03:48.970Z,90.70
2018-02-25T06:08:55.650Z,90.70
2018-02-25T06:13:59.793Z,90.20
2018-02-25T06:19:03.490Z,90.60
2018-02-25T06:24:07.375Z,90.50
2018-02-25T06:29:12.158Z,90.40
2018-02-25T06:34:16.172Z,90.00
2018-02-25T06:39:20.318Z,90.10
2018-02-25T06:44:24.449Z,89.70
2018-02-25T06:49:28.676Z,89.60
2018-02-25T06:54:33.626Z,89.40
2018-02-25T06:59:36.934Z,89.30
2018-02-25T07:04:40.490Z,88.30
2018-02-25T07:09:44.741Z,89.10
2018-02-25T07:14:48.101Z,88.40
2018-02-25T07:19:52.202Z,88.00
2018-02-25T07:24:55.859Z,87.50
2018-02-25T07:30:02.832Z,87.60
2018-02-25T07:35:06.302Z,87.50
2018-02-25T07:40:09.905Z,87.50
2018-02-25T07:45:13.463Z,88.40
2018-02-25T07:50:17.743Z,86.70
2018-02-25T07:55:21.370Z,87.30
2018-02-25T08:00:25.386Z,87.10
2018-02-25T08:05:28.938Z,88.60
2018-02-25T08:10:32.911Z,87.80
2018-02-25T08:15:37.295Z,86.30
2018-02-25T08:20:41.412Z,87.10
2018-02-25T08:25:44.910Z,86.10
2018-02-25T08:30:48.336Z,85.50
2018-02-25T08:35:53.649Z,85.30
2018-02-25T08:40:57.927Z,86.30
2018-02-25T08:46:02.282Z,83.80
2018-02-25T08:51:07.065Z,87.70
2018-02-25T08:56:11.273Z,84.60
2018-02-25T09:01:14.733Z,83.20
2018-02-25T09:06:20.058Z,83.00
2018-02-25T09:11:23.697Z,85.80
2018-02-25T09:16:27.739Z,84.00
2018-02-25T09:21:31.079Z,89.70
2018-02-25T09:26:37.922Z,84.10
2018-02-25T09:31:41.714Z,85.00
2018-02-25T09:36:45.271Z,84.30
2018-02-25T09:41:49.286Z,82.60
2018-02-25T09:46:53.301Z,83.50
2018-02-25T09:51:56.726Z,82.30
2018-02-25T09:57:00.773Z,82.30
2018-02-25T10:02:04.109Z,84.20
2018-02-25T10:07:08.202Z,83.20
2018-02-25T10:12:11.690Z,82.50
2018-02-25T10:17:15.946Z,81.90
2018-02-25T10:22:19.735Z,83.30
2018-02-25T10:27:25.053Z,81.90
2018-02-25T10:32:28.295Z,81.60
2018-02-25T10:37:31.946Z,83.60
2018-02-25T10:42:35.360Z,82.40
2018-02-25T10:47:42.198Z,82.00
2018-02-25T10:52:46.642Z,83.90
2018-02-25T10:57:53.868Z,83.90
2018-02-25T11:02:58.078Z,82.40
2018-02-25T11:08:02.209Z,84.00
2018-02-25T11:13:06.034Z,82.50
2018-02-25T11:18:10.480Z,83.30
2018-02-25T11:23:14.234Z,83.60
2018-02-25T11:28:18.169Z,86.10
2018-02-25T11:33:22.967Z,85.00
2018-02-25T11:38:26.770Z,85.40
2018-02-25T11:43:31.006Z,86.30
2018-02-25T11:48:34.507Z,85.40
2018-02-25T11:53:38.735Z,84.00
2018-02-25T11:58:43.055Z,81.00
2018-02-25T12:03:47.270Z,82.40
2018-02-25T12:08:52.305Z,86.00
2018-02-25T12:13:56.090Z,89.00
2018-02-25T12:19:00.302Z,87.90
2018-02-25T12:24:04.267Z,89.20
2018-02-25T12:29:08.330Z,89.20
2018-02-25T12:34:12.783Z,89.80
2018-02-25T12:39:18.134Z,89.40
2018-02-25T12:44:22.386Z,89.40
2018-02-25T12:49:26.567Z,88.60
2018-02-25T12:54:30.878Z,88.50
2018-02-25T12:59:35.313Z,89.60
2018-02-25T13:04:39.239Z,88.00
2018-02-25T13:09:43.406Z,89.90
2018-02-25T13:14:47.519Z,88.40
2018-02-25T13:19:51.309Z,90.00
2018-02-25T13:24:55.209Z,89.20
2018-02-25T13:29:59.911Z,90.20
2018-02-25T13:35:03.882Z,92.00
2018-02-25T13:40:07.102Z,92.30
2018-02-25T13:45:11.040Z,89.60
2018-02-25T13:50:14.580Z,90.20
2018-02-25T13:55:19.026Z,90.10
2018-02-25T14:00:22.609Z,90.00
2018-02-25T14:05:26.706Z,89.80
2018-02-25T14:10:30.853Z,90.00
2018-02-25T14:15:35.690Z,89.40
2018-02-25T14:20:39.745Z,89.60
2018-02-25T14:25:47.085Z,89.60
2018-02-25T14:30:50.586Z,90.00
2018-02-25T14:35:55.505Z,90.00
2018-02-25T14:40:58.989Z,89.60
2018-02-25T14:46:03.405Z,89.70
2018-02-25T14:51:07.219Z,89.70
2018-02-25T14:56:17.638Z,88.70
2018-02-25T15:01:22.573Z,89.50
2018-02-25T15:06:27.325Z,89.00
2018-02-25T15:11:31.048Z,89.40
2018-02-25T15:16:34.561Z,89.40
2018-02-25T15:21:38.073Z,90.00
2018-02-25T15:26:41.870Z,90.10
2018-02-25T15:31:45.680Z,90.40
2018-02-25T15:36:49.134Z,90.70
2018-02-25T15:41:53.222Z,91.10
2018-02-25T15:46:57.630Z,91.10
2018-02-25T15:52:01.299Z,91.00
2018-02-25T15:57:06.858Z,91.10
2018-02-25T16:02:10.623Z,91.00
2018-02-25T16:07:14.567Z,91.30
2018-02-25T16:12:18.703Z,91.20
2018-02-25T16:17:22.884Z,91.50
2018-02-25T16:22:26.358Z,91.50
2018-02-25T16:27:30.061Z,91.50
2018-02-25T16:32:34.043Z,91.80
2018-02-25T16:37:38.845Z,91.60
2018-02-25T16:42:42.295Z,91.60
2018-02-25T16:47:46.432Z,91.80
2018-02-25T16:52:49.620Z,91.80
2018-02-25T16:57:53.428Z,91.90
2018-02-25T17:02:57.478Z,92.00
2018-02-25T17:08:02.797Z,92.50
2018-02-25T17:13:06.448Z,92.50
2018-02-25T17:18:10.976Z,92.60
2018-02-25T17:23:14.451Z,92.50
2018-02-25T17:28:17.933Z,92.60
2018-02-25T17:33:22.144Z,92.80
2018-02-25T17:38:26.112Z,92.90
2018-02-25T17:43:29.688Z,93.20
2018-02-25T17:48:33.945Z,93.20
2018-02-25T17:53:39.093Z,93.30
2018-02-25T18:01:10.080Z,92.90
2018-02-25T18:06:09.190Z,93.10
2018-02-25T18:11:06.323Z,93.10
2018-02-25T18:16:03.473Z,93.00
2018-02-25T18:21:01.067Z,93.20
2018-02-25T18:26:01.370Z,93.00
2018-02-25T18:30:59.502Z,92.90
2018-02-25T18:35:57.796Z,93.20
2018-02-25T18:40:55.371Z,93.90
2018-02-25T18:45:52.747Z,93.60
2018-02-25T18:50:49.751Z,93.50
2018-02-25T18:55:46.695Z,93.50
2018-02-25T19:00:45.287Z,93.60
2018-02-25T19:05:43.090Z,93.60
2018-02-25T19:10:40.544Z,93.40
2018-02-25T19:15:43.941Z,93.30
2018-02-25T19:20:40.985Z,93.30
2018-02-25T19:25:38.250Z,93.30
2018-02-25T19:30:35.687Z,93.00
2018-02-25T19:35:41.670Z,92.80
2018-02-25T19:40:44.829Z,92.90
2018-02-25T19:45:42.979Z,93.20
2018-02-25T19:50:40.022Z,93.30
2018-02-25T19:55:37.153Z,93.50
2018-02-25T20:00:35.420Z,93.50
2018-02-25T20:05:32.776Z,93.50
2018-02-25T20:10:31.257Z,93.50
2018-02-25T20:15:28.318Z,93.40
2018-02-25T20:20:25.413Z,93.40
2018-02-25T20:25:28.800Z,93.30
2018-02-25T20:30:25.777Z,96.30
2018-02-25T20:35:23.283Z,96.00
2018-02-25T20:40:20.234Z,95.90
2018-02-25T20:45:17.271Z,95.90
2018-02-25T20:50:15.770Z,95.40
2018-02-25T20:55:14.236Z,95.40
2018-02-25T21:00:11.170Z,95.80
2018-02-25T21:05:09.140Z,95.90
2018-02-25T21:10:06.095Z,95.50
2018-02-25T21:15:03.565Z,95.10
2018-02-25T21:20:00.629Z,95.30
2018-02-25T21:25:02.459Z,95.60
2018-02-25T21:29:59.349Z,95.50
2018-02-25T21:34:56.369Z,95.40
2018-02-25T21:39:54.113Z,95.10
2018-02-25T21:44:51.622Z,95.10
2018-02-25T21:49:48.453Z,95.10
2018-02-25T21:54:51.608Z,94.80
2018-02-25T21:59:54.593Z,94.70
2018-02-25T22:04:51.788Z,94.80
2018-02-25T22:09:48.598Z,94.30
2018-02-25T22:14:48.658Z,94.30
2018-02-25T22:19:46.436Z,94.10
2018-02-25T22:24:43.585Z,94.10
2018-02-25T22:29:41.698Z,93.90
2018-02-25T22:34:38.969Z,93.80
2018-02-25T22:39:35.924Z,93.70
2018-02-25T22:44:33.053Z,93.50
2018-02-25T22:49:29.949Z,93.40
2018-02-25T22:54:29.877Z,93.50
2018-02-25T22:59:27.119Z,93.30
2018-02-25T23:04:27.192Z,93.10
2018-02-25T23:09:24.243Z,93.20
2018-02-25T23:14:22.411Z,92.80
2018-02-25T23:19:19.500Z,92.60
2018-02-25T23:24:17.793Z,92.50
2018-02-25T23:29:14.781Z,92.70
2018-02-25T23:34:15.500Z,92.50
2018-02-25T23:39:12.742Z,92.80
2018-02-25T23:44:10.716Z,92.50
2018-02-25T23:49:08.137Z,92.50
2018-02-25T23:54:06.125Z,92.50
2018-02-25T23:59:03.091Z,92.40
